sensor_id;sensor_type;location;lat;lon;timestamp;pressure;altitude;pressure_sealevel;temperature;humidity
76434;BME280;65265;53.200;6.080;2024-02-21T00:04:45;101882.56;;;8.58;100.00
76434;BME280;65265;53.200;6.080;2024-02-21T00:09:38;101853.63;;;8.58;100.00
76434;BME280;65265;53.200;6.080;2024-02-21T00:14:31;101863.66;;;8.55;100.00
76434;BME280;65265;53.200;6.080;2024-02-21T00:19:25;101849.94;;;8.53;100.00
76434;BME280;65265;53.200;6.080;2024-02-21T00:24:18;101800.25;;;8.33;100.00
76434;BME280;65265;53.200;6.080;2024-02-21T00:29:11;101807.16;;;8.49;100.00
76434;BME280;65265;53.200;6.080;2024-02-21T00:34:04;101812.97;;;8.46;100.00
76434;BME280;65265;53.200;6.080;2024-02-21T00:39:01;101800.31;;;8.48;100.00
76434;BME280;65265;53.200;6.080;2024-02-21T00:43:53;101793.88;;;8.40;100.00
76434;BME280;65265;53.200;6.080;2024-02-21T00:48:47;101797.69;;;8.46;100.00
76434;BME280;65265;53.200;6.080;2024-02-21T00:53:40;101801.69;;;8.43;100.00
76434;BME280;65265;53.200;6.080;2024-02-21T00:58:35;101788.56;;;8.37;100.00
76434;BME280;65265;53.200;6.080;2024-02-21T01:03:28;101796.69;;;8.44;100.00
76434;BME280;65265;53.200;6.080;2024-02-21T01:08:21;101791.69;;;8.33;100.00
76434;BME280;65265;53.200;6.080;2024-02-21T01:13:14;101803.66;;;8.34;100.00
76434;BME280;65265;53.200;6.080;2024-02-21T01:18:10;101792.66;;;8.35;100.00
76434;BME280;65265;53.200;6.080;2024-02-21T01:23:03;101786.78;;;8.36;100.00
76434;BME280;65265;53.200;6.080;2024-02-21T01:27:55;101800.13;;;8.32;100.00
76434;BME280;65265;53.200;6.080;2024-02-21T01:32:48;101790.44;;;8.26;100.00
76434;BME280;65265;53.200;6.080;2024-02-21T01:37:43;101791.22;;;8.25;100.00
76434;BME280;65265;53.200;6.080;2024-02-21T01:42:38;101783.47;;;8.24;100.00
76434;BME280;65265;53.200;6.080;2024-02-21T01:47:33;101770.03;;;8.26;100.00
76434;BME280;65265;53.200;6.080;2024-02-21T01:52:25;101769.38;;;8.29;100.00
76434;BME280;65265;53.200;6.080;2024-02-21T01:57:21;101773.97;;;8.34;100.00
76434;BME280;65265;53.200;6.080;2024-02-21T02:02:15;101764.16;;;8.27;100.00
76434;BME280;65265;53.200;6.080;2024-02-21T02:07:08;101748.59;;;8.23;100.00
76434;BME280;65265;53.200;6.080;2024-02-21T02:12:02;101747.97;;;8.14;100.00
76434;BME280;65265;53.200;6.080;2024-02-21T02:16:57;101761.31;;;8.23;100.00
76434;BME280;65265;53.200;6.080;2024-02-21T02:21:52;101759.84;;;8.26;100.00
76434;BME280;65265;53.200;6.080;2024-02-21T02:26:50;101732.50;;;8.24;100.00
76434;BME280;65265;53.200;6.080;2024-02-21T02:31:43;101734.28;;;8.25;100.00
76434;BME280;65265;53.200;6.080;2024-02-21T02:36:36;101718.91;;;8.23;100.00
76434;BME280;65265;53.200;6.080;2024-02-21T02:41:28;101724.56;;;8.19;100.00
76434;BME280;65265;53.200;6.080;2024-02-21T02:46:23;101714.59;;;8.22;100.00
76434;BME280;65265;53.200;6.080;2024-02-21T02:51:16;101708.78;;;8.25;100.00
76434;BME280;65265;53.200;6.080;2024-02-21T02:56:14;101710.53;;;8.26;100.00
76434;BME280;65265;53.200;6.080;2024-02-21T03:01:07;101707.31;;;8.28;100.00
76434;BME280;65265;53.200;6.080;2024-02-21T03:06:04;101710.53;;;8.26;100.00
76434;BME280;65265;53.200;6.080;2024-02-21T03:10:57;101699.06;;;8.32;100.00
76434;BME280;65265;53.200;6.080;2024-02-21T03:15:50;101699.84;;;8.31;100.00
76434;BME280;65265;53.200;6.080;2024-02-21T03:20:42;101705.22;;;8.36;100.00
76434;BME280;65265;53.200;6.080;2024-02-21T03:25:37;101706.81;;;8.34;100.00
76434;BME280;65265;53.200;6.080;2024-02-21T03:30:30;101706.63;;;8.31;100.00
76434;BME280;65265;53.200;6.080;2024-02-21T03:35:22;101721.13;;;8.32;100.00
76434;BME280;65265;53.200;6.080;2024-02-21T03:40:17;101707.78;;;8.36;100.00
76434;BME280;65265;53.200;6.080;2024-02-21T03:45:11;101690.44;;;8.30;100.00
76434;BME280;65265;53.200;6.080;2024-02-21T03:50:04;101684.56;;;8.31;100.00
76434;BME280;65265;53.200;6.080;2024-02-21T03:54:57;101675.44;;;8.35;100.00
76434;BME280;65265;53.200;6.080;2024-02-21T03:59:50;101660.59;;;8.28;100.00
76434;BME280;65265;53.200;6.080;2024-02-21T04:04:45;101669.09;;;8.28;100.00
76434;BME280;65265;53.200;6.080;2024-02-21T04:09:38;101663.03;;;8.26;100.00
76434;BME280;65265;53.200;6.080;2024-02-21T04:14:30;101685.56;;;8.33;100.00
76434;BME280;65265;53.200;6.080;2024-02-21T04:19:22;101685.47;;;8.32;100.00
76434;BME280;65265;53.200;6.080;2024-02-21T04:24:17;101683.88;;;8.34;100.00
76434;BME280;65265;53.200;6.080;2024-02-21T04:29:10;101654.59;;;8.27;100.00
76434;BME280;65265;53.200;6.080;2024-02-21T04:34:05;101658.91;;;8.28;100.00
76434;BME280;65265;53.200;6.080;2024-02-21T04:38:59;101643.31;;;8.24;100.00
76434;BME280;65265;53.200;6.080;2024-02-21T04:43:55;101658.78;;;8.27;100.00
76434;BME280;65265;53.200;6.080;2024-02-21T04:48:48;101655.28;;;8.25;100.00
76434;BME280;65265;53.200;6.080;2024-02-21T04:53:40;101656.84;;;8.23;100.00
76434;BME280;65265;53.200;6.080;2024-02-21T04:58:32;101649.31;;;8.24;100.00
76434;BME280;65265;53.200;6.080;2024-02-21T05:03:27;101638.16;;;8.22;100.00
76434;BME280;65265;53.200;6.080;2024-02-21T05:08:19;101646.06;;;8.27;100.00
76434;BME280;65265;53.200;6.080;2024-02-21T05:13:13;101630.69;;;8.25;100.00
76434;BME280;65265;53.200;6.080;2024-02-21T05:18:06;101633.13;;;8.24;100.00
76434;BME280;65265;53.200;6.080;2024-02-21T05:23:00;101639.31;;;8.27;100.00
76434;BME280;65265;53.200;6.080;2024-02-21T05:27:52;101643.31;;;8.24;100.00
76434;BME280;65265;53.200;6.080;2024-02-21T05:32:46;101626.47;;;8.26;100.00
76434;BME280;65265;53.200;6.080;2024-02-21T05:37:38;101625.66;;;8.27;100.00
76434;BME280;65265;53.200;6.080;2024-02-21T05:42:33;101603.25;;;8.21;100.00
76434;BME280;65265;53.200;6.080;2024-02-21T05:47:25;101598.25;;;8.23;100.00
76434;BME280;65265;53.200;6.080;2024-02-21T05:52:18;101584.91;;;8.27;100.00
76434;BME280;65265;53.200;6.080;2024-02-21T05:57:10;101584.81;;;8.25;100.00
76434;BME280;65265;53.200;6.080;2024-02-21T06:02:05;101583.06;;;8.24;100.00
76434;BME280;65265;53.200;6.080;2024-02-21T06:06:57;101577.97;;;8.24;100.00
76434;BME280;65265;53.200;6.080;2024-02-21T06:11:49;101562.41;;;8.20;100.00
76434;BME280;65265;53.200;6.080;2024-02-21T06:16:43;101553.97;;;8.21;100.00
76434;BME280;65265;53.200;6.080;2024-02-21T06:21:39;101554.75;;;8.20;100.00
76434;BME280;65265;53.200;6.080;2024-02-21T06:26:32;101557.88;;;8.16;100.00
76434;BME280;65265;53.200;6.080;2024-02-21T06:31:24;101552.75;;;8.16;100.00
76434;BME280;65265;53.200;6.080;2024-02-21T06:36:17;101567.41;;;8.18;100.00
76434;BME280;65265;53.200;6.080;2024-02-21T06:41:16;101565.03;;;8.21;100.00
76434;BME280;65265;53.200;6.080;2024-02-21T06:46:10;101554.75;;;8.20;100.00
76434;BME280;65265;53.200;6.080;2024-02-21T06:51:03;101565.81;;;8.20;100.00
76434;BME280;65265;53.200;6.080;2024-02-21T06:55:57;101555.41;;;8.17;100.00
76434;BME280;65265;53.200;6.080;2024-02-21T07:00:51;101563.38;;;8.22;100.00
76434;BME280;65265;53.200;6.080;2024-02-21T07:05:44;101551.44;;;8.21;100.00
76434;BME280;65265;53.200;6.080;2024-02-21T07:10:36;101544.47;;;8.18;100.00
76434;BME280;65265;53.200;6.080;2024-02-21T07:15:28;101539.81;;;8.26;100.00
76434;BME280;65265;53.200;6.080;2024-02-21T07:20:24;101533.50;;;8.19;100.00
76434;BME280;65265;53.200;6.080;2024-02-21T07:25:16;101527.19;;;8.27;100.00
76434;BME280;65265;53.200;6.080;2024-02-21T07:30:09;101503.38;;;8.27;100.00
76434;BME280;65265;53.200;6.080;2024-02-21T07:35:02;101508.03;;;8.34;100.00
76434;BME280;65265;53.200;6.080;2024-02-21T07:39:57;101498.75;;;8.34;100.00
76434;BME280;65265;53.200;6.080;2024-02-21T07:44:49;101491.16;;;8.36;100.00
76434;BME280;65265;53.200;6.080;2024-02-21T07:49:42;101493.81;;;8.37;100.00
76434;BME280;65265;53.200;6.080;2024-02-21T07:54:36;101494.50;;;8.35;100.00
76434;BME280;65265;53.200;6.080;2024-02-21T07:59:32;101489.41;;;8.35;100.00
76434;BME280;65265;53.200;6.080;2024-02-21T08:04:25;101489.50;;;8.36;100.00
76434;BME280;65265;53.200;6.080;2024-02-21T08:09:17;101483.72;;;8.39;100.00
76434;BME280;65265;53.200;6.080;2024-02-21T08:14:09;101482.72;;;8.37;100.00
76434;BME280;65265;53.200;6.080;2024-02-21T08:19:04;101475.19;;;8.38;100.00
76434;BME280;65265;53.200;6.080;2024-02-21T08:23:57;101466.06;;;8.42;100.00
76434;BME280;65265;53.200;6.080;2024-02-21T08:28:51;101461.75;;;8.41;100.00
76434;BME280;65265;53.200;6.080;2024-02-21T08:33:43;101452.50;;;8.43;100.00
76434;BME280;65265;53.200;6.080;2024-02-21T08:38:37;101445.94;;;8.46;100.00
76434;BME280;65265;53.200;6.080;2024-02-21T08:43:30;101432.28;;;8.46;100.00
76434;BME280;65265;53.200;6.080;2024-02-21T08:48:23;101423.06;;;8.48;100.00
76434;BME280;65265;53.200;6.080;2024-02-21T08:53:16;101412.25;;;8.52;100.00
76434;BME280;65265;53.200;6.080;2024-02-21T08:58:10;101382.91;;;8.44;100.00
76434;BME280;65265;53.200;6.080;2024-02-21T09:03:05;101395.22;;;8.51;100.00
76434;BME280;65265;53.200;6.080;2024-02-21T09:07:57;101390.19;;;8.52;100.00
76434;BME280;65265;53.200;6.080;2024-02-21T09:12:50;101394.59;;;8.55;100.00
76434;BME280;65265;53.200;6.080;2024-02-21T09:17:44;101399.06;;;8.59;100.00
76434;BME280;65265;53.200;6.080;2024-02-21T09:22:36;101395.81;;;8.61;100.00
76434;BME280;65265;53.200;6.080;2024-02-21T09:27:30;101391.28;;;8.72;100.00
76434;BME280;65265;53.200;6.080;2024-02-21T09:32:23;101383.84;;;8.75;100.00
76434;BME280;65265;53.200;6.080;2024-02-21T09:37:19;101378.09;;;8.79;100.00
76434;BME280;65265;53.200;6.080;2024-02-21T09:42:11;101373.69;;;8.76;100.00
76434;BME280;65265;53.200;6.080;2024-02-21T09:47:07;101364.00;;;8.85;100.00
76434;BME280;65265;53.200;6.080;2024-02-21T09:52:03;101354.59;;;8.84;100.00
76434;BME280;65265;53.200;6.080;2024-02-21T09:56:59;101335.78;;;8.82;100.00
76434;BME280;65265;53.200;6.080;2024-02-21T10:01:51;101317.84;;;8.81;100.00
76434;BME280;65265;53.200;6.080;2024-02-21T10:06:43;101314.19;;;8.92;100.00
76434;BME280;65265;53.200;6.080;2024-02-21T10:11:36;101321.78;;;9.06;100.00
76434;BME280;65265;53.200;6.080;2024-02-21T10:16:31;101300.34;;;9.03;100.00
76434;BME280;65265;53.200;6.080;2024-02-21T10:21:24;101292.78;;;9.04;100.00
76434;BME280;65265;53.200;6.080;2024-02-21T10:26:17;101269.25;;;9.10;100.00
76434;BME280;65265;53.200;6.080;2024-02-21T10:31:11;101276.34;;;9.15;100.00
76434;BME280;65265;53.200;6.080;2024-02-21T10:36:10;101268.22;;;9.22;100.00
76434;BME280;65265;53.200;6.080;2024-02-21T10:41:04;101270.38;;;9.31;100.00
76434;BME280;65265;53.200;6.080;2024-02-21T10:45:58;101257.91;;;9.37;100.00
76434;BME280;65265;53.200;6.080;2024-02-21T10:50:57;101260.91;;;9.45;100.00
76434;BME280;65265;53.200;6.080;2024-02-21T10:55:56;101239.47;;;9.42;100.00
76434;BME280;65265;53.200;6.080;2024-02-21T11:00:51;101223.06;;;9.37;100.00
76434;BME280;65265;53.200;6.080;2024-02-21T11:05:44;101231.56;;;9.38;100.00
76434;BME280;65265;53.200;6.080;2024-02-21T11:10:37;101219.63;;;9.37;100.00
76434;BME280;65265;53.200;6.080;2024-02-21T11:15:33;101202.69;;;9.38;100.00
76434;BME280;65265;53.200;6.080;2024-02-21T11:20:32;101206.06;;;9.38;100.00
76434;BME280;65265;53.200;6.080;2024-02-21T11:25:25;101180.31;;;9.33;100.00
76434;BME280;65265;53.200;6.080;2024-02-21T11:30:18;101156.25;;;9.45;100.00
76434;BME280;65265;53.200;6.080;2024-02-21T11:35:22;101140.56;;;9.38;100.00
76434;BME280;65265;53.200;6.080;2024-02-21T11:40:15;101142.91;;;9.34;100.00
76434;BME280;65265;53.200;6.080;2024-02-21T11:45:08;101126.78;;;9.35;100.00
76434;BME280;65265;53.200;6.080;2024-02-21T11:50:00;101122.63;;;9.37;100.00
76434;BME280;65265;53.200;6.080;2024-02-21T11:54:56;101112.28;;;9.34;100.00
76434;BME280;65265;53.200;6.080;2024-02-21T11:59:55;101083.53;;;9.20;100.00
76434;BME280;65265;53.200;6.080;2024-02-21T12:04:47;101072.03;;;9.28;100.00
76434;BME280;65265;53.200;6.080;2024-02-21T12:09:42;101072.25;;;9.33;100.00
76434;BME280;65265;53.200;6.080;2024-02-21T12:14:37;101056.63;;;9.27;100.00
76434;BME280;65265;53.200;6.080;2024-02-21T12:19:30;101016.91;;;9.32;100.00
76434;BME280;65265;53.200;6.080;2024-02-21T12:24:24;101036.00;;;9.40;100.00
76434;BME280;65265;53.200;6.080;2024-02-21T12:29:16;101037.75;;;9.41;100.00
76434;BME280;65265;53.200;6.080;2024-02-21T12:34:12;101017.03;;;9.35;100.00
76434;BME280;65265;53.200;6.080;2024-02-21T12:39:05;101020.53;;;9.37;100.00
76434;BME280;65265;53.200;6.080;2024-02-21T12:43:59;100987.22;;;9.34;100.00
76434;BME280;65265;53.200;6.080;2024-02-21T12:48:51;100969.34;;;9.34;100.00
76434;BME280;65265;53.200;6.080;2024-02-21T12:53:45;100942.34;;;9.38;100.00
76434;BME280;65265;53.200;6.080;2024-02-21T12:58:38;100935.06;;;9.46;100.00
76434;BME280;65265;53.200;6.080;2024-02-21T13:03:30;100909.47;;;9.44;100.00
76434;BME280;65265;53.200;6.080;2024-02-21T13:08:23;100887.03;;;9.56;100.00
76434;BME280;65265;53.200;6.080;2024-02-21T13:13:18;100851.56;;;9.62;100.00
76434;BME280;65265;53.200;6.080;2024-02-21T13:18:11;100826.97;;;9.64;100.00
76434;BME280;65265;53.200;6.080;2024-02-21T13:23:05;100805.84;;;9.68;100.00
76434;BME280;65265;53.200;6.080;2024-02-21T13:27:57;100797.25;;;9.66;100.00
76434;BME280;65265;53.200;6.080;2024-02-21T13:32:52;100797.94;;;9.62;100.00
76434;BME280;65265;53.200;6.080;2024-02-21T13:37:45;100778.47;;;9.64;100.00
76434;BME280;65265;53.200;6.080;2024-02-21T13:42:37;100786.72;;;9.59;100.00
76434;BME280;65265;53.200;6.080;2024-02-21T13:47:29;100772.69;;;9.49;100.00
76434;BME280;65265;53.200;6.080;2024-02-21T13:52:23;100764.97;;;9.48;100.00
76434;BME280;65265;53.200;6.080;2024-02-21T13:57:16;100745.38;;;9.47;100.00
76434;BME280;65265;53.200;6.080;2024-02-21T14:02:09;100716.16;;;9.41;100.00
76434;BME280;65265;53.200;6.080;2024-02-21T14:07:03;100709.56;;;9.45;100.00
76434;BME280;65265;53.200;6.080;2024-02-21T14:11:58;100698.22;;;9.39;100.00
76434;BME280;65265;53.200;6.080;2024-02-21T14:16:50;100680.91;;;9.32;100.00
76434;BME280;65265;53.200;6.080;2024-02-21T14:21:43;100667.38;;;9.33;100.00
76434;BME280;65265;53.200;6.080;2024-02-21T14:26:35;100649.94;;;9.23;100.00
76434;BME280;65265;53.200;6.080;2024-02-21T14:31:31;100637.22;;;9.25;100.00
76434;BME280;65265;53.200;6.080;2024-02-21T14:36:24;100614.81;;;9.18;100.00
76434;BME280;65265;53.200;6.080;2024-02-21T14:41:17;100612.81;;;9.11;100.00
76434;BME280;65265;53.200;6.080;2024-02-21T14:46:09;100607.03;;;9.15;100.00
76434;BME280;65265;53.200;6.080;2024-02-21T14:51:06;100605.34;;;9.15;100.00
76434;BME280;65265;53.200;6.080;2024-02-21T14:56:00;100587.44;;;9.14;100.00
76434;BME280;65265;53.200;6.080;2024-02-21T15:00:52;100582.59;;;9.20;100.00
76434;BME280;65265;53.200;6.080;2024-02-21T15:05:46;100567.94;;;9.16;100.00
76434;BME280;65265;53.200;6.080;2024-02-21T15:10:41;100562.38;;;9.24;100.00
76434;BME280;65265;53.200;6.080;2024-02-21T15:15:33;100545.38;;;9.25;100.00
76434;BME280;65265;53.200;6.080;2024-02-21T15:20:26;100515.50;;;9.22;100.00
76434;BME280;65265;53.200;6.080;2024-02-21T15:25:19;100496.88;;;9.25;100.00
76434;BME280;65265;53.200;6.080;2024-02-21T15:30:15;100480.66;;;9.23;100.00
76434;BME280;65265;53.200;6.080;2024-02-21T15:35:08;100456.22;;;9.07;100.00
76434;BME280;65265;53.200;6.080;2024-02-21T15:40:00;100452.81;;;9.07;100.00
76434;BME280;65265;53.200;6.080;2024-02-21T15:44:52;100419.66;;;9.07;100.00
76434;BME280;65265;53.200;6.080;2024-02-21T15:49:45;100404.22;;;9.04;100.00
76434;BME280;65265;53.200;6.080;2024-02-21T15:54:36;100389.38;;;8.94;100.00
76434;BME280;65265;53.200;6.080;2024-02-21T15:59:28;100377.31;;;8.90;100.00
76434;BME280;65265;53.200;6.080;2024-02-21T16:04:22;100361.91;;;8.87;100.00
76434;BME280;65265;53.200;6.080;2024-02-21T16:09:18;100344.53;;;8.77;100.00
76434;BME280;65265;53.200;6.080;2024-02-21T16:14:10;100337.44;;;8.70;100.00
76434;BME280;65265;53.200;6.080;2024-02-21T16:19:03;100328.69;;;8.63;100.00
76434;BME280;65265;53.200;6.080;2024-02-21T16:23:55;100307.19;;;8.57;100.00
76434;BME280;65265;53.200;6.080;2024-02-21T16:28:52;100279.38;;;8.41;100.00
76434;BME280;65265;53.200;6.080;2024-02-21T16:33:48;100271.13;;;8.46;100.00
76434;BME280;65265;53.200;6.080;2024-02-21T16:38:40;100242.63;;;8.34;100.00
76434;BME280;65265;53.200;6.080;2024-02-21T16:43:32;100240.81;;;8.32;100.00
76434;BME280;65265;53.200;6.080;2024-02-21T16:48:26;100266.75;;;8.44;100.00
76434;BME280;65265;53.200;6.080;2024-02-21T16:53:20;100261.91;;;8.50;100.00
76434;BME280;65265;53.200;6.080;2024-02-21T16:58:14;100224.91;;;8.37;100.00
76434;BME280;65265;53.200;6.080;2024-02-21T17:03:06;100214.53;;;8.33;100.00
76434;BME280;65265;53.200;6.080;2024-02-21T17:08:00;100221.44;;;8.35;100.00
76434;BME280;65265;53.200;6.080;2024-02-21T17:12:54;100191.34;;;8.27;100.00
76434;BME280;65265;53.200;6.080;2024-02-21T17:17:48;100188.53;;;8.41;100.00
76434;BME280;65265;53.200;6.080;2024-02-21T17:22:40;100203.06;;;8.44;100.00
76434;BME280;65265;53.200;6.080;2024-02-21T17:27:36;100206.44;;;8.43;100.00
76434;BME280;65265;53.200;6.080;2024-02-21T17:32:28;100169.19;;;8.24;100.00
76434;BME280;65265;53.200;6.080;2024-02-21T17:37:21;100169.59;;;8.35;100.00
76434;BME280;65265;53.200;6.080;2024-02-21T17:42:13;100121.78;;;8.06;100.00
76434;BME280;65265;53.200;6.080;2024-02-21T17:47:07;100136.91;;;8.23;100.00
76434;BME280;65265;53.200;6.080;2024-02-21T17:51:59;100124.63;;;8.15;100.00
76434;BME280;65265;53.200;6.080;2024-02-21T17:56:52;100122.66;;;8.28;100.00
76434;BME280;65265;53.200;6.080;2024-02-21T18:01:48;100089.75;;;8.12;100.00
76434;BME280;65265;53.200;6.080;2024-02-21T18:06:42;100108.34;;;8.32;100.00
76434;BME280;65265;53.200;6.080;2024-02-21T18:11:36;100065.91;;;8.10;100.00
76434;BME280;65265;53.200;6.080;2024-02-21T18:16:31;100079.81;;;8.18;100.00
76434;BME280;65265;53.200;6.080;2024-02-21T18:21:29;100062.91;;;8.20;100.00
76434;BME280;65265;53.200;6.080;2024-02-21T18:26:25;100060.44;;;8.22;100.00
76434;BME280;65265;53.200;6.080;2024-02-21T18:31:20;99991.44;;;7.94;100.00
76434;BME280;65265;53.200;6.080;2024-02-21T18:36:12;100005.88;;;7.93;100.00
76434;BME280;65265;53.200;6.080;2024-02-21T18:41:04;99993.06;;;7.92;100.00
76434;BME280;65265;53.200;6.080;2024-02-21T18:46:00;100032.47;;;8.23;100.00
76434;BME280;65265;53.200;6.080;2024-02-21T18:50:52;100008.28;;;8.12;100.00
76434;BME280;65265;53.200;6.080;2024-02-21T18:55:45;100018.03;;;8.24;100.00
76434;BME280;65265;53.200;6.080;2024-02-21T19:00:36;100007.19;;;8.28;100.00
76434;BME280;65265;53.200;6.080;2024-02-21T19:05:32;99967.53;;;8.12;100.00
76434;BME280;65265;53.200;6.080;2024-02-21T19:10:26;99988.41;;;8.26;100.00
76434;BME280;65265;53.200;6.080;2024-02-21T19:15:18;99963.34;;;8.14;100.00
76434;BME280;65265;53.200;6.080;2024-02-21T19:20:16;99951.44;;;8.13;100.00
76434;BME280;65265;53.200;6.080;2024-02-21T19:25:09;99907.44;;;7.94;100.00
76434;BME280;65265;53.200;6.080;2024-02-21T19:30:08;99955.09;;;8.20;100.00
76434;BME280;65265;53.200;6.080;2024-02-21T19:35:01;99894.69;;;7.92;100.00
76434;BME280;65265;53.200;6.080;2024-02-21T19:39:55;99908.81;;;8.08;100.00
76434;BME280;65265;53.200;6.080;2024-02-21T19:44:55;99885.41;;;7.94;100.00
76434;BME280;65265;53.200;6.080;2024-02-21T19:49:47;99863.38;;;7.95;100.00
76434;BME280;65265;53.200;6.080;2024-02-21T19:54:39;99881.19;;;8.18;100.00
76434;BME280;65265;53.200;6.080;2024-02-21T19:59:32;99853.47;;;8.04;100.00
76434;BME280;65265;53.200;6.080;2024-02-21T20:04:28;99833.53;;;7.91;100.00
76434;BME280;65265;53.200;6.080;2024-02-21T20:09:20;99845.47;;;8.17;100.00
76434;BME280;65265;53.200;6.080;2024-02-21T20:14:15;99838.56;;;8.14;100.00
76434;BME280;65265;53.200;6.080;2024-02-21T20:19:08;99839.53;;;8.18;100.00
76434;BME280;65265;53.200;6.080;2024-02-21T20:24:06;99843.22;;;8.26;100.00
76434;BME280;65265;53.200;6.080;2024-02-21T20:28:58;99833.91;;;8.26;100.00
76434;BME280;65265;53.200;6.080;2024-02-21T20:33:50;99830.69;;;8.32;100.00
76434;BME280;65265;53.200;6.080;2024-02-21T20:38:43;99822.97;;;8.29;100.00
76434;BME280;65265;53.200;6.080;2024-02-21T20:43:37;99819.38;;;8.24;100.00
76434;BME280;65265;53.200;6.080;2024-02-21T20:48:30;99797.69;;;8.10;100.00
76434;BME280;65265;53.200;6.080;2024-02-21T20:53:22;99795.63;;;8.23;100.00
76434;BME280;65265;53.200;6.080;2024-02-21T20:58:19;99750.56;;;7.97;100.00
76434;BME280;65265;53.200;6.080;2024-02-21T21:03:14;99768.31;;;8.19;100.00
76434;BME280;65265;53.200;6.080;2024-02-21T21:08:09;99739.25;;;8.14;100.00
76434;BME280;65265;53.200;6.080;2024-02-21T21:13:01;99737.63;;;8.16;100.00
76434;BME280;65265;53.200;6.080;2024-02-21T21:17:54;99740.22;;;8.18;100.00
76434;BME280;65265;53.200;6.080;2024-02-21T21:22:48;99745.38;;;8.19;100.00
76434;BME280;65265;53.200;6.080;2024-02-21T21:27:43;99767.94;;;8.34;100.00
76434;BME280;65265;53.200;6.080;2024-02-21T21:32:38;99712.84;;;8.11;100.00
76434;BME280;65265;53.200;6.080;2024-02-21T21:37:30;99722.28;;;8.15;100.00
76434;BME280;65265;53.200;6.080;2024-02-21T21:42:24;99708.09;;;8.21;100.00
76434;BME280;65265;53.200;6.080;2024-02-21T21:47:17;99685.97;;;8.19;100.00
76434;BME280;65265;53.200;6.080;2024-02-21T21:52:09;99679.19;;;8.19;100.00
76434;BME280;65265;53.200;6.080;2024-02-21T21:57:02;99709.56;;;8.41;100.00
76434;BME280;65265;53.200;6.080;2024-02-21T22:01:59;99691.88;;;8.46;100.00
76434;BME280;65265;53.200;6.080;2024-02-21T22:06:56;99674.66;;;8.37;100.00
76434;BME280;65265;53.200;6.080;2024-02-21T22:11:50;99650.22;;;8.44;100.00
76434;BME280;65265;53.200;6.080;2024-02-21T22:16:42;99632.88;;;8.32;100.00
76434;BME280;65265;53.200;6.080;2024-02-21T22:21:36;99627.69;;;8.28;100.00
76434;BME280;65265;53.200;6.080;2024-02-21T22:26:28;99654.56;;;8.48;100.00
76434;BME280;65265;53.200;6.080;2024-02-21T22:31:21;99652.00;;;8.48;100.00
76434;BME280;65265;53.200;6.080;2024-02-21T22:36:13;99646.00;;;8.46;100.00
76434;BME280;65265;53.200;6.080;2024-02-21T22:41:07;99656.75;;;8.64;100.00
76434;BME280;65265;53.200;6.080;2024-02-21T22:45:59;99653.31;;;8.63;100.00
76434;BME280;65265;53.200;6.080;2024-02-21T22:50:53;99651.72;;;8.67;100.00
76434;BME280;65265;53.200;6.080;2024-02-21T22:55:48;99637.41;;;8.72;100.00
76434;BME280;65265;53.200;6.080;2024-02-21T23:00:43;99631.41;;;8.70;100.00
76434;BME280;65265;53.200;6.080;2024-02-21T23:05:35;99625.50;;;8.71;100.00
76434;BME280;65265;53.200;6.080;2024-02-21T23:10:28;99630.69;;;8.74;100.00
76434;BME280;65265;53.200;6.080;2024-02-21T23:15:20;99632.50;;;8.78;100.00
76434;BME280;65265;53.200;6.080;2024-02-21T23:20:14;99615.47;;;8.77;100.00
76434;BME280;65265;53.200;6.080;2024-02-21T23:25:09;99624.91;;;8.81;100.00
76434;BME280;65265;53.200;6.080;2024-02-21T23:30:01;99616.44;;;8.82;100.00
76434;BME280;65265;53.200;6.080;2024-02-21T23:34:54;99624.34;;;8.91;100.00
76434;BME280;65265;53.200;6.080;2024-02-21T23:39:51;99598.84;;;8.91;100.00
76434;BME280;65265;53.200;6.080;2024-02-21T23:44:43;99589.53;;;8.91;100.00
76434;BME280;65265;53.200;6.080;2024-02-21T23:49:36;99598.91;;;8.94;100.00
76434;BME280;65265;53.200;6.080;2024-02-21T23:54:28;99588.66;;;8.91;100.00
76434;BME280;65265;53.200;6.080;2024-02-21T23:59:24;99591.19;;;8.91;100.00
